Time;durP1;ratioP1;P1;durP2;ratioP2;P2;SDS_P1;SDS_P2;PMS_P1;PMS_P2;Temp;Humidity;BMP_temperature;BMP_pressure;BME280_temperature;BME280_humidity;BME280_pressure;Samples;Min_cycle;Max_cycle;Signal;HPM_P1;HPM_P2
2023/06/16 00:01:30;;;;;;;1999.90;999.90;;;21.90;90.70;;;;;;5045222;28;20033;-71
2023/06/16 00:03:59;;;;;;;1999.90;999.90;;;22.20;90.50;;;;;;5060626;28;20040;-68
2023/06/16 00:06:29;;;;;;;1999.90;999.90;;;22.50;89.20;;;;;;5049836;28;20676;-68
2023/06/16 00:08:58;;;;;;;1999.90;999.90;;;22.90;88.10;;;;;;5052684;28;20033;-67
2023/06/16 00:11:29;;;;;;;1999.90;999.90;;;23.10;87.60;;;;;;5045614;28;20511;-68
2023/06/16 00:13:57;;;;;;;1999.90;999.90;;;23.40;86.20;;;;;;5059047;28;20029;-69
2023/06/16 00:16:26;;;;;;;1999.90;999.90;;;23.50;85.60;;;;;;5048613;28;20028;-68
2023/06/16 00:18:57;;;;;;;1999.90;999.90;;;23.60;87.70;;;;;;5063060;28;20432;-68
2023/06/16 00:21:35;;;;;;;1999.90;999.90;;;24.30;83.80;;;;;;5051228;28;20498;-67
2023/06/16 00:24:03;;;;;;;1999.90;999.90;;;24.50;84.90;;;;;;5056836;28;20111;-69
2023/06/16 00:26:30;;;;;;;1999.90;999.90;;;24.30;84.30;;;;;;5055765;28;20948;-75
2023/06/16 00:28:58;;;;;;;1999.90;999.90;;;24.30;84.90;;;;;;5061915;28;20021;-68
2023/06/16 00:31:31;;;;;;;1999.90;999.90;;;24.50;83.70;;;;;;5054352;28;20386;-68
2023/06/16 00:33:59;;;;;;;1999.90;999.90;;;24.80;82.00;;;;;;5054142;28;20407;-70
2023/06/16 00:36:27;;;;;;;1999.90;999.90;;;25.00;81.00;;;;;;5054001;28;20497;-69
2023/06/16 00:38:55;;;;;;;1999.90;999.90;;;25.20;80.00;;;;;;5046299;28;20032;-68
2023/06/16 00:41:24;;;;;;;1999.90;999.90;;;25.00;81.00;;;;;;5055308;28;20028;-68
2023/06/16 00:43:55;;;;;;;1999.90;999.90;;;24.90;82.80;;;;;;5049891;28;20056;-67
2023/06/16 00:46:30;;;;;;;1999.90;999.90;;;25.20;79.70;;;;;;5054205;28;20013;-68
2023/06/16 00:48:58;;;;;;;1999.90;999.90;;;25.40;80.50;;;;;;5050055;28;20017;-72
2023/06/16 00:51:27;;;;;;;1999.90;999.90;;;25.70;78.40;;;;;;5049891;28;20033;-70
2023/06/16 00:53:59;;;;;;;1999.90;999.90;;;25.90;78.30;;;;;;5057553;28;20057;-70
2023/06/16 00:56:27;;;;;;;1999.90;999.90;;;25.90;78.40;;;;;;5051877;28;20019;-68
2023/06/16 00:58:55;;;;;;;1999.90;999.90;;;26.20;78.40;;;;;;5050453;28;20471;-68
2023/06/16 01:01:28;;;;;;;1999.90;999.90;;;26.20;78.00;;;;;;5041233;28;20652;-67
2023/06/16 01:03:57;;;;;;;1999.90;999.90;;;26.20;78.30;;;;;;5051573;28;20056;-68
2023/06/16 01:06:43;;;;;;;1999.90;999.90;;;26.40;77.90;;;;;;5040306;28;20473;-69
2023/06/16 01:09:37;;;;;;;1999.90;999.90;;;26.50;78.70;;;;;;5046135;28;20036;-67
2023/06/16 01:12:26;;;;;;;1999.90;999.90;;;27.10;77.00;;;;;;5044991;28;20044;-68
2023/06/16 01:15:06;;;;;;;1999.90;999.90;;;27.20;77.00;;;;;;5052617;28;20021;-68
2023/06/16 01:17:43;;;;;;;1999.90;999.90;;;27.40;75.90;;;;;;5050265;28;20032;-68
2023/06/16 01:20:37;;;;;;;1999.90;999.90;;;27.00;76.30;;;;;;5047216;28;20025;-67
2023/06/16 01:23:25;;;;;;;1999.90;999.90;;;27.10;76.40;;;;;;5048770;28;20064;-74
2023/06/16 01:25:56;;;;;;;1999.90;999.90;;;27.50;76.10;;;;;;5050647;28;20078;-68
2023/06/16 01:28:29;;;;;;;1999.90;999.90;;;27.60;75.20;;;;;;5059243;28;20046;-67
2023/06/16 01:30:59;;;;;;;1999.90;999.90;;;27.60;75.20;;;;;;5053573;28;20033;-67
2023/06/16 01:33:30;;;;;;;1999.90;999.90;;;28.00;75.10;;;;;;5048486;28;20029;-67
2023/06/16 01:35:58;;;;;;;1999.90;999.90;;;28.20;75.40;;;;;;5054460;28;20538;-68
2023/06/16 01:38:27;;;;;;;1999.90;999.90;;;28.40;75.30;;;;;;5054908;28;20016;-69
2023/06/16 01:40:55;;;;;;;1999.90;999.90;;;28.40;75.10;;;;;;5053248;28;20540;-67
2023/06/16 01:43:24;;;;;;;1999.90;999.90;;;28.70;73.50;;;;;;5061181;28;20025;-67
2023/06/16 01:45:52;;;;;;;1999.90;999.90;;;28.60;73.60;;;;;;5048320;28;20115;-67
2023/06/16 01:48:21;;;;;;;1999.90;999.90;;;28.50;72.70;;;;;;5043732;28;20040;-67
2023/06/16 01:50:50;;;;;;;1999.90;999.90;;;28.10;73.60;;;;;;5048754;28;20037;-67
2023/06/16 01:53:17;;;;;;;1999.90;999.90;;;28.00;75.00;;;;;;5052095;28;20842;-67
2023/06/16 01:55:52;;;;;;;1999.90;999.90;;;28.00;75.10;;;;;;5047741;28;20116;-69
2023/06/16 01:58:23;;;;;;;1999.90;999.90;;;28.50;76.30;;;;;;5047179;28;20446;-67
2023/06/16 02:01:04;;;;;;;1999.90;999.90;;;28.80;75.00;;;;;;5051374;28;20793;-67
2023/06/16 02:03:43;;;;;;;1999.90;999.90;;;28.80;73.80;;;;;;5035485;28;20053;-74
2023/06/16 02:06:23;;;;;;;1999.90;999.90;;;28.40;72.50;;;;;;5051284;28;20357;-69
2023/06/16 02:08:56;;;;;;;1999.90;999.90;;;27.90;73.90;;;;;;5051191;28;20017;-66
2023/06/16 02:11:23;;;;;;;1999.90;999.90;;;27.90;75.10;;;;;;5040255;28;20037;-74
2023/06/16 02:13:51;;;;;;;1999.90;999.90;;;28.10;74.40;;;;;;5054267;28;20020;-68
2023/06/16 02:16:19;;;;;;;1999.90;999.90;;;28.50;75.50;;;;;;5053937;28;20364;-67
2023/06/16 02:18:49;;;;;;;1999.90;999.90;;;28.60;74.80;;;;;;5044550;28;20563;-67
2023/06/16 02:21:17;;;;;;;1999.90;999.90;;;28.90;74.90;;;;;;5046817;28;20057;-68
2023/06/16 02:23:44;;;;;;;1999.90;999.90;;;29.00;74.30;;;;;;5056129;28;20458;-68
2023/06/16 02:26:11;;;;;;;1999.90;999.90;;;28.90;72.60;;;;;;5053268;28;20582;-66
2023/06/16 02:28:39;;;;;;;1999.90;999.90;;;28.30;72.80;;;;;;5052003;28;20037;-67
2023/06/16 02:31:06;;;;;;;1999.90;999.90;;;28.20;74.00;;;;;;5054703;28;20114;-69
2023/06/16 02:33:34;;;;;;;1999.90;999.90;;;28.10;74.50;;;;;;5049295;28;20016;-68
2023/06/16 02:36:01;;;;;;;1999.90;999.90;;;27.90;73.80;;;;;;5050011;28;20064;-67
2023/06/16 02:38:30;;;;;;;1999.90;999.90;;;27.90;74.30;;;;;;5060768;28;20491;-68
2023/06/16 02:40:57;;;;;;;1999.90;999.90;;;27.50;74.10;;;;;;5042819;28;20052;-68
2023/06/16 02:43:24;;;;;;;1999.90;999.90;;;27.20;75.10;;;;;;5049693;28;20071;-68
2023/06/16 02:45:56;;;;;;;1999.90;999.90;;;27.20;75.50;;;;;;5049626;28;20025;-66
2023/06/16 02:48:28;;;;;;;1999.90;999.90;;;27.10;75.30;;;;;;5064417;28;20037;-70
2023/06/16 02:50:55;;;;;;;1999.90;999.90;;;27.10;75.40;;;;;;5049327;28;20032;-68
2023/06/16 02:53:24;;;;;;;1999.90;999.90;;;27.00;74.90;;;;;;5058058;28;20025;-69
2023/06/16 02:55:55;;;;;;;1999.90;999.90;;;26.60;74.50;;;;;;5058231;28;20021;-69
2023/06/16 02:58:23;;;;;;;1999.90;999.90;;;26.10;75.80;;;;;;5050360;28;20136;-67
2023/06/16 03:00:50;;;;;;;1999.90;999.90;;;25.60;75.70;;;;;;5052915;28;20829;-68
2023/06/16 03:03:18;;;;;;;1999.90;999.90;;;25.20;76.60;;;;;;5057816;28;20128;-68
2023/06/16 03:05:45;;;;;;;1999.90;999.90;;;24.90;77.30;;;;;;5050637;28;20039;-68
2023/06/16 03:08:12;;;;;;;1999.90;999.90;;;24.90;77.60;;;;;;5053122;28;20515;-68
2023/06/16 03:10:40;;;;;;;1999.90;999.90;;;24.50;77.60;;;;;;5049066;28;20053;-67
2023/06/16 03:13:07;;;;;;;1999.90;999.90;;;24.20;78.30;;;;;;5053180;28;20021;-68
2023/06/16 03:15:36;;;;;;;1999.90;999.90;;;24.10;78.30;;;;;;5051503;28;20143;-70
2023/06/16 03:18:03;;;;;;;1999.90;999.90;;;23.90;78.60;;;;;;5055339;28;20079;-71
2023/06/16 03:20:31;;;;;;;1999.90;999.90;;;23.70;78.60;;;;;;5055267;28;20025;-75
2023/06/16 03:22:59;;;;;;;1999.90;999.90;;;23.40;79.50;;;;;;5054899;28;20059;-77
2023/06/16 03:25:28;;;;;;;1999.90;999.90;;;23.10;79.90;;;;;;5046531;28;20056;-69
2023/06/16 03:27:55;;;;;;;1999.90;999.90;;;22.90;80.10;;;;;;5056197;28;20035;-69
2023/06/16 03:30:23;;;;;;;1999.90;999.90;;;22.70;80.80;;;;;;5058350;28;20040;-71
2023/06/16 03:32:50;;;;;;;1999.90;999.90;;;22.50;81.40;;;;;;5054943;28;20132;-70
2023/06/16 03:35:18;;;;;;;1999.90;999.90;;;22.20;81.40;;;;;;5062150;28;20097;-68
2023/06/16 03:37:45;;;;;;;1999.90;999.90;;;22.10;81.40;;;;;;5058097;28;20027;-68
2023/06/16 03:40:12;;;;;;;1999.90;999.90;;;21.80;81.50;;;;;;5059731;28;20028;-70
2023/06/16 03:42:40;;;;;;;1999.90;999.90;;;21.60;82.00;;;;;;5050230;28;20100;-68
2023/06/16 03:45:07;;;;;;;1999.90;999.90;;;21.30;82.60;;;;;;5055089;28;20029;-68
2023/06/16 03:47:35;;;;;;;1999.90;999.90;;;21.10;83.30;;;;;;5054429;28;20016;-69
2023/06/16 03:50:03;;;;;;;1999.90;999.90;;;20.90;83.40;;;;;;5057587;28;20042;-69
2023/06/16 03:52:30;;;;;;;1999.90;999.90;;;20.80;83.40;;;;;;5049966;28;20442;-70
2023/06/16 03:54:57;;;;;;;1999.90;999.90;;;20.60;83.30;;;;;;5051780;28;20038;-68
2023/06/16 03:57:25;;;;;;;1999.90;999.90;;;20.50;83.50;;;;;;5055252;28;20120;-68
2023/06/16 03:59:52;;;;;;;1999.90;999.90;;;20.40;83.80;;;;;;5050786;28;20364;-69
2023/06/16 04:02:20;;;;;;;1999.90;999.90;;;20.30;84.10;;;;;;5058462;28;20059;-69
2023/06/16 04:04:47;;;;;;;1999.90;999.90;;;20.10;84.00;;;;;;5053189;28;20032;-68
2023/06/16 04:07:14;;;;;;;1999.90;999.90;;;20.10;84.10;;;;;;5047298;28;20029;-68
2023/06/16 04:09:42;;;;;;;1999.90;999.90;;;20.00;84.30;;;;;;5052155;28;20033;-68
2023/06/16 04:12:09;;;;;;;1999.90;999.90;;;19.90;84.70;;;;;;5051105;28;20480;-70
2023/06/16 04:14:37;;;;;;;1999.90;999.90;;;19.90;85.20;;;;;;5056514;28;20020;-68
2023/06/16 04:17:04;;;;;;;1999.90;999.90;;;19.90;85.50;;;;;;5045894;28;20025;-67
2023/06/16 04:19:32;;;;;;;1999.90;999.90;;;19.80;85.70;;;;;;5053038;28;20102;-68
2023/06/16 04:21:59;;;;;;;1999.90;999.90;;;19.60;86.00;;;;;;5054348;28;20032;-68
2023/06/16 04:24:26;;;;;;;1999.90;999.90;;;19.50;86.40;;;;;;5055741;28;20031;-68
2023/06/16 04:26:58;;;;;;;1999.90;999.90;;;19.50;86.70;;;;;;5044223;28;20526;-69
2023/06/16 04:29:28;;;;;;;1999.90;999.90;;;19.40;86.10;;;;;;5044029;28;20067;-68
2023/06/16 04:32:02;;;;;;;1999.90;999.90;;;19.40;86.50;;;;;;5047835;28;20075;-68
2023/06/16 04:34:31;;;;;;;1999.90;999.90;;;19.20;86.80;;;;;;5049796;28;20048;-68
2023/06/16 04:36:58;;;;;;;1999.90;999.90;;;19.20;86.30;;;;;;5053713;28;20383;-68
2023/06/16 04:39:26;;;;;;;1999.90;999.90;;;19.10;86.80;;;;;;5055114;28;20107;-69
2023/06/16 04:41:53;;;;;;;1999.90;999.90;;;19.10;87.20;;;;;;5047262;28;20337;-69
2023/06/16 04:44:20;;;;;;;1999.90;999.90;;;19.00;87.60;;;;;;5054488;28;20037;-68
2023/06/16 04:46:48;;;;;;;1999.90;999.90;;;19.00;88.10;;;;;;5055791;28;20028;-69
2023/06/16 04:49:15;;;;;;;1999.90;999.90;;;18.90;88.20;;;;;;5052876;28;20060;-68
2023/06/16 04:51:44;;;;;;;1999.90;999.90;;;18.80;88.60;;;;;;5047094;28;20238;-68
2023/06/16 04:54:11;;;;;;;1999.90;999.90;;;18.80;88.40;;;;;;5053022;28;20454;-72
2023/06/16 04:56:39;;;;;;;1999.90;999.90;;;18.80;88.70;;;;;;5044996;28;20431;-76
2023/06/16 04:59:06;;;;;;;1999.90;999.90;;;18.80;88.30;;;;;;5061051;28;20099;-68
2023/06/16 05:01:34;;;;;;;1999.90;999.90;;;18.80;87.80;;;;;;5055511;28;20017;-69
2023/06/16 05:04:02;;;;;;;1999.90;999.90;;;18.80;87.70;;;;;;5059548;28;20025;-67
2023/06/16 05:06:30;;;;;;;1999.90;999.90;;;18.80;88.00;;;;;;5049464;28;20566;-68
2023/06/16 05:08:57;;;;;;;1999.90;999.90;;;18.80;88.40;;;;;;5050331;28;20029;-68
2023/06/16 05:11:24;;;;;;;1999.90;999.90;;;18.70;88.60;;;;;;5050898;28;20039;-70
2023/06/16 05:13:52;;;;;;;1999.90;999.90;;;18.70;88.40;;;;;;5050876;28;20012;-68
2023/06/16 05:16:19;;;;;;;1999.90;999.90;;;18.70;88.60;;;;;;5047663;28;20035;-68
2023/06/16 05:18:46;;;;;;;1999.90;999.90;;;18.70;87.90;;;;;;5060627;28;20423;-67
2023/06/16 05:21:14;;;;;;;1999.90;999.90;;;18.70;87.60;;;;;;5046978;28;20025;-67
2023/06/16 05:23:41;;;;;;;1999.90;999.90;;;18.70;87.30;;;;;;5053369;28;20021;-66
2023/06/16 05:26:09;;;;;;;1999.90;999.90;;;18.60;88.20;;;;;;5051808;28;20033;-68
2023/06/16 05:28:36;;;;;;;1999.90;999.90;;;18.60;88.70;;;;;;5056505;28;20025;-67
2023/06/16 05:31:04;;;;;;;1999.90;999.90;;;18.50;88.70;;;;;;5053195;28;20101;-77
2023/06/16 05:33:31;;;;;;;1999.90;999.90;;;18.50;89.00;;;;;;5054058;28;20108;-69
2023/06/16 05:35:58;;;;;;;1999.90;999.90;;;18.40;89.20;;;;;;5055287;28;20029;-67
2023/06/16 05:38:26;;;;;;;1999.90;999.90;;;18.40;88.70;;;;;;5050381;28;20533;-66
2023/06/16 05:40:54;;;;;;;1999.90;999.90;;;18.30;89.00;;;;;;5044812;28;20052;-68
2023/06/16 05:43:21;;;;;;;1999.90;999.90;;;18.20;89.50;;;;;;5052600;28;20437;-68
2023/06/16 05:45:49;;;;;;;1999.90;999.90;;;18.20;89.90;;;;;;5048191;28;20041;-71
2023/06/16 05:48:16;;;;;;;1999.90;999.90;;;18.20;90.10;;;;;;5057197;28;20025;-67
2023/06/16 05:50:43;;;;;;;1999.90;999.90;;;18.20;89.60;;;;;;5052553;28;20051;-68
2023/06/16 05:53:11;;;;;;;1999.90;999.90;;;18.10;90.00;;;;;;5047701;28;20037;-68
2023/06/16 05:55:39;;;;;;;1999.90;999.90;;;18.10;90.00;;;;;;5051785;28;20025;-68
2023/06/16 05:58:07;;;;;;;1999.90;999.90;;;18.20;89.90;;;;;;5055726;28;20490;-74
2023/06/16 06:00:35;;;;;;;1999.90;999.90;;;18.20;90.00;;;;;;5050728;28;20066;-69
2023/06/16 06:03:04;;;;;;;1999.90;999.90;;;18.20;90.30;;;;;;5051152;28;20071;-68
2023/06/16 06:05:31;;;;;;;1999.90;999.90;;;18.10;90.10;;;;;;5050908;28;20024;-68
2023/06/16 06:07:58;;;;;;;1999.90;999.90;;;18.20;90.50;;;;;;5053360;28;20444;-68
2023/06/16 06:10:26;;;;;;;1999.90;999.90;;;18.20;90.50;;;;;;5046739;28;20033;-70
2023/06/16 06:12:53;;;;;;;1999.90;999.90;;;18.40;90.30;;;;;;5053625;28;20020;-68
2023/06/16 06:15:20;;;;;;;1999.90;999.90;;;18.50;90.30;;;;;;5044596;28;20047;-69
2023/06/16 06:17:48;;;;;;;1999.90;999.90;;;18.60;90.30;;;;;;5052972;28;20021;-67
2023/06/16 06:20:15;;;;;;;1999.90;999.90;;;18.60;90.50;;;;;;5048965;28;20086;-69
2023/06/16 06:22:43;;;;;;;1999.90;999.90;;;18.40;90.70;;;;;;5061273;28;20135;-67
2023/06/16 06:25:13;;;;;;;1999.90;999.90;;;18.20;91.00;;;;;;5045408;28;20041;-69
2023/06/16 06:27:43;;;;;;;1999.90;999.90;;;18.00;91.10;;;;;;5050387;28;20435;-67
2023/06/16 06:30:10;;;;;;;1999.90;999.90;;;17.90;91.70;;;;;;5050917;28;20124;-68
2023/06/16 06:32:38;;;;;;;1999.90;999.90;;;17.60;92.50;;;;;;5050899;28;20040;-68
2023/06/16 06:35:06;;;;;;;1999.90;999.90;;;17.50;92.80;;;;;;5053531;28;20039;-67
2023/06/16 06:37:33;;;;;;;1999.90;999.90;;;17.20;92.70;;;;;;5045712;28;20025;-68
2023/06/16 06:40:01;;;;;;;1999.90;999.90;;;17.10;92.70;;;;;;5055975;28;20021;-69
2023/06/16 06:42:28;;;;;;;1999.90;999.90;;;16.90;93.00;;;;;;5046582;28;20028;-69
2023/06/16 06:44:56;;;;;;;1999.90;999.90;;;16.80;93.30;;;;;;5049111;28;20087;-71
2023/06/16 06:47:23;;;;;;;1999.90;999.90;;;16.60;93.70;;;;;;5047054;28;20576;-69
2023/06/16 06:49:50;;;;;;;1999.90;999.90;;;16.50;93.80;;;;;;5050567;28;20033;-70
2023/06/16 06:52:18;;;;;;;1999.90;999.90;;;16.50;93.80;;;;;;5042977;28;20028;-69
2023/06/16 06:54:45;;;;;;;1999.90;999.90;;;16.40;94.20;;;;;;5054410;28;20017;-71
2023/06/16 06:57:12;;;;;;;1999.90;999.90;;;16.30;94.30;;;;;;5052616;28;20029;-74
2023/06/16 06:59:42;;;;;;;1999.90;999.90;;;16.20;94.50;;;;;;5048200;28;20030;-71
2023/06/16 07:02:09;;;;;;;1999.90;999.90;;;16.10;94.80;;;;;;5058924;28;20558;-69
2023/06/16 07:04:38;;;;;;;1999.90;999.90;;;15.90;95.10;;;;;;5051378;28;20043;-73
2023/06/16 07:07:07;;;;;;;1999.90;999.90;;;15.80;95.30;;;;;;5049203;28;20033;-70
2023/06/16 07:09:35;;;;;;;1999.90;999.90;;;15.70;95.70;;;;;;5050582;28;20617;-69
2023/06/16 07:12:03;;;;;;;1999.90;999.90;;;15.60;96.40;;;;;;5050810;28;20051;-70
2023/06/16 07:14:30;;;;;;;1999.90;999.90;;;15.40;96.50;;;;;;5049354;28;20040;-71
2023/06/16 07:16:58;;;;;;;1999.90;999.90;;;15.20;96.80;;;;;;5052788;28;20111;-71
2023/06/16 07:19:27;;;;;;;1999.90;999.90;;;15.10;97.00;;;;;;5055882;28;20423;-71
2023/06/16 07:21:56;;;;;;;1999.90;999.90;;;14.90;97.20;;;;;;5052789;28;20028;-73
2023/06/16 07:24:25;;;;;;;1999.90;999.90;;;14.90;97.60;;;;;;5048639;28;20029;-71
2023/06/16 07:26:52;;;;;;;1999.90;999.90;;;14.80;97.70;;;;;;5058097;28;20028;-70
2023/06/16 07:29:20;;;;;;;1999.90;999.90;;;14.60;98.00;;;;;;5048448;28;20037;-70
2023/06/16 07:31:47;;;;;;;1999.90;999.90;;;14.50;98.40;;;;;;5056990;28;20050;-72
2023/06/16 07:34:15;;;;;;;1999.90;999.90;;;14.40;98.70;;;;;;5059012;28;20029;-73
2023/06/16 07:36:42;;;;;;;1999.90;999.90;;;14.40;98.90;;;;;;5058798;28;20029;-69
2023/06/16 07:39:10;;;;;;;1999.90;999.90;;;14.30;99.00;;;;;;5053442;28;20349;-70
2023/06/16 07:41:37;;;;;;;1999.90;999.90;;;14.20;99.30;;;;;;5059755;28;20036;-71
2023/06/16 07:44:06;;;;;;;1999.90;999.90;;;14.10;99.60;;;;;;5062360;28;20035;-71
2023/06/16 07:46:34;;;;;;;1999.90;999.90;;;14.00;99.80;;;;;;5050102;28;20028;-72
2023/06/16 07:49:01;;;;;;;1999.90;999.90;;;13.80;99.90;;;;;;5061990;28;20021;-77
2023/06/16 07:51:29;;;;;;;1999.90;999.90;;;13.70;99.90;;;;;;5051732;28;20035;-71
2023/06/16 07:53:56;;;;;;;1999.90;999.90;;;13.70;99.90;;;;;;5060850;28;20115;-73
2023/06/16 07:56:23;;;;;;;1999.90;999.90;;;13.60;99.90;;;;;;5056277;28;20033;-70
2023/06/16 07:58:51;;;;;;;1999.90;999.90;;;13.50;99.90;;;;;;5057985;28;20384;-71
2023/06/16 08:01:18;;;;;;;1999.90;999.90;;;13.50;99.90;;;;;;5056539;28;20033;-73
2023/06/16 08:03:46;;;;;;;1999.90;999.90;;;13.40;99.90;;;;;;5055288;28;20053;-75
2023/06/16 08:06:13;;;;;;;1999.90;999.90;;;13.30;99.90;;;;;;5059435;28;20040;-72
2023/06/16 08:08:41;;;;;;;1999.90;999.90;;;13.20;99.90;;;;;;5059133;28;20027;-71
2023/06/16 08:11:09;;;;;;;1999.90;999.90;;;13.20;99.90;;;;;;5050923;28;20033;-73
2023/06/16 08:13:36;;;;;;;1999.90;999.90;;;13.10;99.90;;;;;;5058892;28;20052;-71
2023/06/16 08:16:05;;;;;;;1999.90;999.90;;;13.10;99.90;;;;;;5055157;28;20496;-72
2023/06/16 08:18:32;;;;;;;1999.90;999.90;;;13.10;99.90;;;;;;5052423;28;20021;-73
2023/06/16 08:21:00;;;;;;;1999.90;999.90;;;13.10;99.90;;;;;;5049697;28;20056;-70
2023/06/16 08:23:28;;;;;;;1999.90;999.90;;;13.00;99.90;;;;;;5051941;28;20079;-71
2023/06/16 08:25:55;;;;;;;1999.90;999.90;;;13.00;99.90;;;;;;5053373;28;20025;-71
2023/06/16 08:28:24;;;;;;;1999.90;999.90;;;12.90;99.90;;;;;;5042858;28;20028;-72
2023/06/16 08:30:51;;;;;;;1999.90;999.90;;;12.90;99.90;;;;;;5038719;28;20137;-73
2023/06/16 08:33:20;;;;;;;1999.90;999.90;;;12.90;99.90;;;;;;5047149;28;20029;-73
2023/06/16 08:35:47;;;;;;;1999.90;999.90;;;12.90;99.90;;;;;;5044472;28;20074;-73
2023/06/16 08:38:14;;;;;;;1999.90;999.90;;;12.80;99.90;;;;;;5047385;28;20158;-74
2023/06/16 08:40:43;;;;;;;1999.90;999.90;;;12.70;99.90;;;;;;5060413;28;20021;-72
2023/06/16 08:43:14;;;;;;;1999.90;999.90;;;12.60;99.90;;;;;;5060274;28;20028;-72
2023/06/16 08:45:41;;;;;;;1999.90;999.90;;;12.50;99.90;;;;;;5055364;28;22190;-73
2023/06/16 08:48:11;;;;;;;1999.90;999.90;;;12.40;99.90;;;;;;5049645;28;20480;-74
2023/06/16 08:50:40;;;;;;;1999.90;999.90;;;12.30;99.90;;;;;;5051098;28;20037;-74
2023/06/16 08:53:09;;;;;;;1999.90;999.90;;;12.20;99.90;;;;;;5061860;28;20016;-74
2023/06/16 08:55:40;;;;;;;1999.90;999.90;;;12.20;99.90;;;;;;5051062;28;20028;-74
2023/06/16 08:58:13;;;;;;;1999.90;999.90;;;12.10;99.90;;;;;;5063676;28;20510;-73
2023/06/16 09:00:43;;;;;;;1999.90;999.90;;;12.10;99.90;;;;;;5060293;28;20037;-74
2023/06/16 09:03:13;;;;;;;1999.90;999.90;;;12.00;99.90;;;;;;5055557;28;20044;-74
2023/06/16 09:05:40;;;;;;;1999.90;999.90;;;12.00;99.90;;;;;;5055108;28;20021;-77
2023/06/16 09:08:08;;;;;;;1999.90;999.90;;;11.90;99.90;;;;;;5057106;28;20020;-73
2023/06/16 09:10:35;;;;;;;1999.90;999.90;;;11.90;99.90;;;;;;5049402;28;20424;-72
2023/06/16 09:13:02;;;;;;;1999.90;999.90;;;11.80;99.90;;;;;;5061878;28;20104;-71
2023/06/16 09:15:33;;;;;;;1999.90;999.90;;;11.80;99.90;;;;;;5061866;28;20071;-72
2023/06/16 09:18:08;;;;;;;1999.90;999.90;;;11.70;99.90;;;;;;5054213;28;20045;-74
2023/06/16 09:20:44;;;;;;;1999.90;999.90;;;11.70;99.90;;;;;;5056048;28;20068;-72
2023/06/16 09:23:11;;;;;;;1999.90;999.90;;;11.70;99.90;;;;;;5054465;28;20037;-74
2023/06/16 09:25:39;;;;;;;1999.90;999.90;;;11.70;99.90;;;;;;5049890;28;20055;-72
2023/06/16 09:28:09;;;;;;;1999.90;999.90;;;11.60;99.90;;;;;;5049100;28;20427;-73
2023/06/16 09:30:37;;;;;;;1999.90;999.90;;;11.50;99.90;;;;;;5055449;28;20136;-72
2023/06/16 09:33:06;;;;;;;1999.90;999.90;;;11.40;99.90;;;;;;5052126;28;20052;-73
2023/06/16 09:35:33;;;;;;;1999.90;999.90;;;11.40;99.90;;;;;;5049195;28;20024;-74
2023/06/16 09:38:03;;;;;;;1999.90;999.90;;;11.30;99.90;;;;;;5049146;28;20080;-70
2023/06/16 09:40:33;;;;;;;1999.90;999.90;;;11.30;99.90;;;;;;5051413;28;20029;-73
2023/06/16 09:43:03;;;;;;;1999.90;999.90;;;11.20;99.90;;;;;;5052993;28;20028;-75
2023/06/16 09:45:33;;;;;;;1999.90;999.90;;;11.10;99.90;;;;;;5049801;28;20041;-73
2023/06/16 09:48:05;;;;;;;1999.90;999.90;;;11.10;99.90;;;;;;5052742;28;20037;-72
2023/06/16 09:50:33;;;;;;;1999.90;999.90;;;11.00;99.90;;;;;;5056620;28;20055;-72
2023/06/16 09:53:06;;;;;;;1999.90;999.90;;;11.00;99.90;;;;;;5057129;28;20064;-72
2023/06/16 09:55:38;;;;;;;1999.90;999.90;;;10.90;99.90;;;;;;5050429;28;20048;-71
2023/06/16 09:58:06;;;;;;;1999.90;999.90;;;10.90;99.90;;;;;;5056227;28;20056;-71
2023/06/16 10:00:34;;;;;;;1999.90;999.90;;;10.80;99.90;;;;;;5056894;28;20032;-70
2023/06/16 10:03:05;;;;;;;1999.90;999.90;;;10.70;99.90;;;;;;5056107;28;20053;-70
2023/06/16 10:05:35;;;;;;;1999.90;999.90;;;10.70;99.90;;;;;;5052750;28;20059;-70
2023/06/16 10:08:06;;;;;;;1999.90;999.90;;;10.60;99.90;;;;;;5061690;28;20109;-71
2023/06/16 10:10:36;;;;;;;1999.90;999.90;;;10.50;99.90;;;;;;5046482;28;20078;-72
2023/06/16 10:13:06;;;;;;;1999.90;999.90;;;10.50;99.90;;;;;;5048636;28;20025;-71
2023/06/16 10:15:38;;;;;;;1999.90;999.90;;;10.50;99.90;;;;;;5047728;28;20029;-73
2023/06/16 10:18:08;;;;;;;1999.90;999.90;;;10.40;99.90;;;;;;5053504;28;20025;-72
2023/06/16 10:20:37;;;;;;;1999.90;999.90;;;10.40;99.90;;;;;;5055604;28;20035;-73
2023/06/16 10:23:06;;;;;;;1999.90;999.90;;;10.50;99.90;;;;;;5057650;28;20083;-72
2023/06/16 10:25:34;;;;;;;1999.90;999.90;;;10.50;99.90;;;;;;5043968;28;20041;-73
2023/06/16 10:28:07;;;;;;;1999.90;999.90;;;10.50;99.90;;;;;;5054582;28;20104;-74
2023/06/16 10:30:35;;;;;;;1999.90;999.90;;;10.50;99.90;;;;;;5054261;28;20033;-73
2023/06/16 10:33:17;;;;;;;1999.90;999.90;;;10.50;99.90;;;;;;5056411;28;20027;-73
2023/06/16 10:35:56;;;;;;;1999.90;999.90;;;10.50;99.90;;;;;;5059180;28;20031;-73
2023/06/16 10:38:36;;;;;;;1999.90;999.90;;;10.40;99.90;;;;;;5060499;28;20028;-74
2023/06/16 10:41:06;;;;;;;1999.90;999.90;;;10.40;99.90;;;;;;5047472;28;20041;-71
2023/06/16 10:43:33;;;;;;;1999.90;999.90;;;10.30;99.90;;;;;;5045242;28;20013;-72
2023/06/16 10:46:18;;;;;;;1999.90;999.90;;;10.20;99.90;;;;;;5055342;28;20036;-73
2023/06/16 10:49:07;;;;;;;1999.90;999.90;;;10.20;99.90;;;;;;5048241;28;20021;-71
2023/06/16 10:51:52;;;;;;;1999.90;999.90;;;10.10;99.90;;;;;;5053762;28;20025;-72
2023/06/16 10:54:52;;;;;;;1999.90;999.90;;;10.10;99.90;;;;;;5061361;28;20151;-73
2023/06/16 10:57:20;;;;;;;1999.90;999.90;;;10.00;99.90;;;;;;5026279;28;20033;-72
2023/06/16 10:59:57;;;;;;;1999.90;999.90;;;9.90;99.90;;;;;;5055618;28;20021;-72
2023/06/16 11:02:30;;;;;;;1999.90;999.90;;;9.90;99.90;;;;;;5055830;28;20052;-72
2023/06/16 11:05:10;;;;;;;1999.90;999.90;;;9.90;99.90;;;;;;5058705;28;20044;-72
2023/06/16 11:07:41;;;;;;;1999.90;999.90;;;9.80;99.90;;;;;;5062577;28;20070;-72
2023/06/16 11:10:11;;;;;;;1999.90;999.90;;;9.70;99.90;;;;;;5057870;28;20025;-73
2023/06/16 11:12:41;;;;;;;1999.90;999.90;;;9.60;99.90;;;;;;5058988;28;20033;-72
2023/06/16 11:15:09;;;;;;;1999.90;999.90;;;9.60;99.90;;;;;;5061368;28;20033;-73
2023/06/16 11:17:37;;;;;;;1999.90;999.90;;;9.50;99.90;;;;;;5053975;28;20476;-74
2023/06/16 11:20:06;;;;;;;1999.90;999.90;;;9.40;99.90;;;;;;5058143;28;20119;-75
2023/06/16 11:22:35;;;;;;;1999.90;999.90;;;9.40;99.90;;;;;;5061883;28;20021;-72
2023/06/16 11:25:03;;;;;;;1999.90;999.90;;;9.40;99.90;;;;;;5057272;28;20052;-74
2023/06/16 11:27:34;;;;;;;1999.90;999.90;;;9.30;99.90;;;;;;5059796;28;20036;-74
2023/06/16 11:30:05;;;;;;;1999.90;999.90;;;9.30;99.90;;;;;;5051965;28;20051;-78
2023/06/16 11:32:34;;;;;;;1999.90;999.90;;;9.30;99.90;;;;;;5062424;28;20035;-72
2023/06/16 11:35:03;;;;;;;1999.90;999.90;;;9.30;99.90;;;;;;5064275;28;20110;-74
2023/06/16 11:37:54;;;;;;;1999.90;999.90;;;9.30;99.90;;;;;;5050837;28;20033;-71
2023/06/16 11:40:23;;;;;;;1999.90;999.90;;;9.20;99.90;;;;;;5053038;28;20029;-72
2023/06/16 11:43:08;;;;;;;1999.90;999.90;;;9.10;99.90;;;;;;5054390;28;20033;-70
2023/06/16 11:45:55;;;;;;;1999.90;999.90;;;9.10;99.90;;;;;;5053494;28;20078;-72
2023/06/16 11:48:23;;;;;;;1999.90;999.90;;;9.00;99.90;;;;;;5058194;28;20436;-72
2023/06/16 11:50:50;;;;;;;1999.90;999.90;;;8.90;99.90;;;;;;5050121;28;20499;-72
2023/06/16 11:53:18;;;;;;;1999.90;999.90;;;8.80;99.90;;;;;;5049668;28;20071;-72
2023/06/16 11:55:55;;;;;;;1999.90;999.90;;;8.80;99.90;;;;;;5058810;28;20361;-75
2023/06/16 11:58:28;;;;;;;1999.90;999.90;;;8.80;99.90;;;;;;5062253;28;20025;-72
2023/06/16 12:01:00;;;;;;;1999.90;999.90;;;8.70;99.90;;;;;;5048499;28;20720;-72
2023/06/16 12:03:35;;;;;;;1999.90;999.90;;;8.70;99.90;;;;;;5062951;28;20052;-72
2023/06/16 12:06:05;;;;;;;1999.90;999.90;;;8.70;99.90;;;;;;5050598;28;20078;-75
2023/06/16 12:08:53;;;;;;;1999.90;999.90;;;8.60;99.90;;;;;;5057512;28;20032;-72
2023/06/16 12:11:27;;;;;;;1999.90;999.90;;;8.50;99.90;;;;;;5061563;28;20062;-73
2023/06/16 12:13:56;;;;;;;1999.90;999.90;;;8.50;99.90;;;;;;5053767;28;20121;-70